Time;durP1;ratioP1;P1;durP2;ratioP2;P2;SDS_P1;SDS_P2;PMS_P1;PMS_P2;Temp;Humidity;BMP_temperature;BMP_pressure;BME280_temperature;BME280_humidity;BME280_pressure;Samples;Min_cycle;Max_cycle;Signal;HPM_P1;HPM_P2
2021/08/24 00:00:49;;;;;;;;;10.75;10.75;;;;;30.25;28.53;100899.75;144153;609;131047;-70
2021/08/24 00:03:23;;;;;;;;;8.25;7.00;;;;;30.21;28.61;100893.81;144154;570;132014;-72
2021/08/24 00:05:57;;;;;;;;;8.25;8.25;;;;;30.21;28.59;100896.53;144182;577;131021;-71
2021/08/24 00:08:32;;;;;;;;;9.00;9.00;;;;;30.24;28.73;100899.91;144152;583;132908;-73
2021/08/24 00:11:07;;;;;;;;;12.00;12.00;;;;;30.27;28.57;100899.59;144168;583;131020;-73
2021/08/24 00:13:42;;;;;;;;;15.00;13.25;;;;;30.24;28.51;100898.06;144146;570;132014;-73
2021/08/24 00:16:20;;;;;;;;;9.25;9.25;;;;;30.17;28.95;100895.16;144175;565;131021;-74
2021/08/24 00:18:54;;;;;;;;;13.50;11.75;;;;;30.09;28.76;100897.03;144162;600;132911;-73
2021/08/24 00:21:29;;;;;;;;;12.00;11.75;;;;;30.05;28.88;100891.94;144174;680;131031;-73
2021/08/24 00:24:03;;;;;;;;;9.50;9.50;;;;;30.00;29.06;100894.28;144150;616;132912;-73
2021/08/24 00:26:37;;;;;;;;;8.25;8.25;;;;;29.92;29.05;100890.72;144158;563;132010;-73
2021/08/24 00:29:11;;;;;;;;;11.50;9.50;;;;;29.67;29.66;100888.75;144147;564;132018;-74
2021/08/24 00:31:46;;;;;;;;;11.50;11.50;;;;;29.57;29.50;100892.59;144171;565;132012;-73
2021/08/24 00:34:20;;;;;;;;;12.50;11.25;;;;;29.45;29.72;100887.50;144151;589;132012;-73
2021/08/24 00:36:53;;;;;;;;;9.50;9.50;;;;;29.45;29.68;100889.34;144169;572;132013;-73
2021/08/24 00:39:27;;;;;;;;;8.75;8.75;;;;;29.26;30.24;100887.75;144153;607;132911;-72
2021/08/24 00:42:01;;;;;;;;;10.50;10.25;;;;;29.21;29.96;100894.47;144172;564;132010;-72
2021/08/24 00:44:35;;;;;;;;;8.75;8.75;;;;;29.31;30.02;100888.13;144158;570;132014;-72
2021/08/24 00:47:13;;;;;;;;;10.00;9.00;;;;;29.33;30.09;100891.50;144176;575;132010;-72
2021/08/24 00:49:47;;;;;;;;;8.75;8.75;;;;;29.29;30.18;100882.00;144152;570;132015;-72
2021/08/24 00:52:29;;;;;;;;;13.50;10.75;;;;;29.20;30.11;100884.66;144163;567;131021;-72
2021/08/24 00:55:04;;;;;;;;;11.00;11.00;;;;;29.00;30.41;100888.59;144156;565;132012;-71
2021/08/24 00:57:38;;;;;;;;;10.00;10.00;;;;;28.99;30.46;100882.34;144168;609;132010;-73
2021/08/24 01:00:13;;;;;;;;;8.00;8.00;;;;;29.05;30.59;100886.25;144154;653;132912;-72
2021/08/24 01:02:47;;;;;;;;;11.25;10.50;;;;;29.07;30.32;100883.38;144165;573;132012;-72
2021/08/24 01:05:21;;;;;;;;;10.25;10.00;;;;;29.13;30.44;100880.91;144154;564;132015;-72
2021/08/24 01:08:02;;;;;;;;;9.00;9.00;;;;;29.13;30.37;100878.19;144176;699;131021;-71
2021/08/24 01:10:59;;;;;;;;;8.50;8.50;;;;;29.17;30.53;100876.88;144170;764;132014;-71
2021/08/24 01:13:58;;;;;;;;;10.00;10.00;;;;;29.12;30.49;100879.19;144172;596;132010;-72
2021/08/24 01:16:51;;;;;;;;;14.25;14.25;;;;;29.16;30.41;100877.03;144151;617;132012;-73
2021/08/24 01:19:55;;;;;;;;;9.75;9.75;;;;;29.14;30.37;100870.91;144155;589;132010;-71
2021/08/24 01:23:02;;;;;;;;;9.75;9.75;;;;;28.93;30.73;100872.16;144149;594;132019;-71
2021/08/24 01:26:11;;;;;;;;;11.50;11.50;;;;;28.66;31.37;100863.19;144177;710;132010;-70
2021/08/24 01:29:18;;;;;;;;;10.75;10.75;;;;;28.60;31.59;100874.59;144156;573;132913;-72
2021/08/24 01:32:29;;;;;;;;;12.00;9.00;;;;;28.57;31.65;100868.66;144168;610;132012;-72
2021/08/24 01:35:48;;;;;;;;;9.75;9.25;;;;;28.67;31.25;100866.75;144153;569;132012;-71
2021/08/24 01:38:31;;;;;;;;;6.50;6.50;;;;;28.73;31.41;100871.50;144182;577;131020;-71
2021/08/24 01:41:28;;;;;;;;;10.00;10.00;;;;;28.61;31.52;100864.63;144165;630;132020;-70
2021/08/24 01:44:23;;;;;;;;;10.00;9.25;;;;;28.70;31.53;100863.72;144171;616;132012;-71
2021/08/24 01:47:22;;;;;;;;;12.25;12.25;;;;;28.69;31.38;100862.03;144149;735;132014;-72
2021/08/24 01:50:30;;;;;;;;;12.75;12.75;;;;;28.70;31.41;100870.00;144152;606;132012;-72
2021/08/24 01:53:33;;;;;;;;;9.25;6.75;;;;;28.70;31.55;100859.19;144149;601;132913;-72
2021/08/24 01:56:15;;;;;;;;;14.25;11.00;;;;;28.74;31.45;100861.56;144172;573;131020;-72
2021/08/24 01:58:59;;;;;;;;;9.50;8.25;;;;;28.79;31.42;100851.16;144151;640;132912;-71
2021/08/24 02:01:41;;;;;;;;;12.00;12.00;;;;;28.82;31.41;100856.22;144169;683;132010;-70
2021/08/24 02:04:43;;;;;;;;;13.75;12.75;;;;;28.91;31.20;100859.81;144146;569;132015;-74
2021/08/24 02:07:19;;;;;;;;;9.50;9.50;;;;;28.98;31.43;100845.50;144172;606;131020;-74
2021/08/24 02:10:01;;;;;;;;;11.00;11.00;;;;;29.00;31.13;100848.88;144157;607;132014;-74
2021/08/24 02:12:39;;;;;;;;;10.00;8.75;;;;;29.10;31.09;100848.78;144167;583;132011;-73
2021/08/24 02:15:14;;;;;;;;;11.25;9.50;;;;;29.09;31.00;100849.78;144149;587;132012;-74
2021/08/24 02:17:50;;;;;;;;;12.25;11.25;;;;;28.95;31.40;100847.69;144155;577;132012;-74
2021/08/24 02:20:45;;;;;;;;;10.25;10.25;;;;;28.92;31.31;100848.00;144150;569;132014;-71
2021/08/24 02:23:27;;;;;;;;;12.75;11.00;;;;;28.94;31.34;100837.88;144168;577;133012;-72
2021/08/24 02:26:05;;;;;;;;;10.75;10.75;;;;;28.87;31.55;100843.94;144147;610;132911;-71
2021/08/24 02:28:43;;;;;;;;;9.00;9.00;;;;;28.67;31.68;100829.78;144172;590;131020;-71
2021/08/24 02:32:03;;;;;;;;;11.75;11.00;;;;;28.30;32.79;100836.22;144156;573;132911;-72
2021/08/24 02:35:04;;;;;;;;;12.75;12.25;;;;;28.43;32.74;100838.53;144167;625;132010;-71
2021/08/24 02:37:52;;;;;;;;;12.50;12.50;;;;;28.35;33.04;100835.75;144159;635;132018;-73
2021/08/24 02:40:56;;;;;;;;;11.75;10.50;;;;;28.46;33.19;100831.94;144174;565;132013;-73
2021/08/24 02:44:00;;;;;;;;;10.50;10.50;;;;;28.54;32.65;100834.72;144150;600;131914;-73
2021/08/24 02:46:40;;;;;;;;;12.00;11.00;;;;;28.67;32.92;100837.03;144149;619;132010;-73
2021/08/24 02:49:41;;;;;;;;;11.75;10.75;;;;;28.42;33.47;100839.53;144149;592;132013;-70
2021/08/24 02:52:16;;;;;;;;;12.75;11.25;;;;;28.49;33.27;100835.19;144174;642;131020;-71
2021/08/24 02:54:54;;;;;;;;;11.00;10.50;;;;;28.53;33.16;100841.13;144155;596;132021;-72
2021/08/24 02:57:28;;;;;;;;;9.75;9.75;;;;;28.59;33.34;100835.09;144176;608;131020;-72
2021/08/24 03:00:02;;;;;;;;;12.75;12.50;;;;;28.55;33.45;100839.12;144143;660;132012;-73
2021/08/24 03:02:36;;;;;;;;;11.50;10.75;;;;;28.57;33.35;100836.25;144175;581;132012;-75
2021/08/24 03:05:10;;;;;;;;;12.00;11.50;;;;;28.58;33.23;100838.78;144158;610;132912;-74
2021/08/24 03:07:47;;;;;;;;;10.50;10.50;;;;;28.64;33.14;100842.78;144179;666;132012;-75
2021/08/24 03:10:26;;;;;;;;;11.00;11.00;;;;;28.54;33.43;100838.28;144148;593;132911;-75
2021/08/24 03:13:57;;;;;;;;;11.50;11.50;;;;;28.76;33.26;100843.34;144153;573;132010;-75
2021/08/24 03:16:52;;;;;;;;;10.25;10.25;;;;;28.83;32.84;100849.81;144154;607;132911;-75
2021/08/24 03:19:32;;;;;;;;;11.25;10.75;;;;;28.79;32.87;100849.28;144166;588;132013;-74
2021/08/24 03:22:08;;;;;;;;;11.50;11.25;;;;;28.72;33.01;100850.94;144147;586;132014;-75
2021/08/24 03:24:43;;;;;;;;;13.00;13.00;;;;;28.63;33.16;100839.19;144166;654;132013;-75
2021/08/24 03:27:17;;;;;;;;;10.00;10.00;;;;;28.64;33.14;100846.31;144158;617;132912;-70
2021/08/24 03:30:02;;;;;;;;;11.00;11.00;;;;;28.56;33.17;100845.38;144169;606;132010;-70
2021/08/24 03:32:36;;;;;;;;;14.50;14.25;;;;;28.30;33.66;100846.19;144163;569;132911;-73
2021/08/24 03:35:11;;;;;;;;;10.00;10.00;;;;;28.29;33.58;100836.38;144167;583;132010;-74
2021/08/24 03:37:45;;;;;;;;;10.25;10.25;;;;;28.34;33.49;100847.56;144155;621;132012;-74
2021/08/24 03:40:20;;;;;;;;;11.75;11.75;;;;;28.21;33.74;100850.66;144154;616;131021;-74
2021/08/24 03:42:54;;;;;;;;;13.50;13.00;;;;;28.22;33.55;100846.97;144150;655;132014;-73
2021/08/24 03:45:29;;;;;;;;;12.25;12.25;;;;;28.22;33.63;100849.66;144168;630;132012;-74
2021/08/24 03:48:02;;;;;;;;;12.25;11.25;;;;;28.30;33.65;100857.00;144155;579;132911;-74
2021/08/24 03:50:37;;;;;;;;;11.25;11.25;;;;;28.30;33.65;100851.59;144169;586;132012;-74
2021/08/24 03:53:11;;;;;;;;;11.50;11.50;;;;;28.35;33.47;100849.25;144146;603;132014;-74
2021/08/24 03:55:45;;;;;;;;;11.00;11.00;;;;;28.40;33.42;100855.03;144170;573;132013;-74
2021/08/24 03:58:18;;;;;;;;;12.25;11.00;;;;;28.39;33.50;100853.34;144157;570;134911;-74
2021/08/24 04:00:53;;;;;;;;;13.00;10.00;;;;;28.21;34.01;100847.94;144168;655;132010;-73
2021/08/24 04:03:27;;;;;;;;;16.00;14.00;;;;;28.31;33.75;100853.25;144150;620;132012;-73
2021/08/24 04:06:03;;;;;;;;;16.00;13.25;;;;;28.33;33.70;100851.25;144156;569;131028;-73
2021/08/24 04:08:36;;;;;;;;;12.00;11.00;;;;;28.32;33.84;100855.84;144147;603;131911;-73
2021/08/24 04:11:12;;;;;;;;;13.75;12.50;;;;;28.30;33.59;100849.72;144171;574;132010;-74
2021/08/24 04:13:46;;;;;;;;;14.25;12.25;;;;;28.32;33.65;100845.03;144149;597;132911;-74
2021/08/24 04:16:20;;;;;;;;;11.25;11.25;;;;;28.22;33.84;100854.22;144167;588;132013;-76
2021/08/24 04:18:54;;;;;;;;;12.75;12.50;;;;;28.26;33.69;100855.59;144147;587;132014;-74
2021/08/24 04:21:28;;;;;;;;;13.50;12.25;;;;;28.24;33.95;100854.91;144168;582;131030;-70
2021/08/24 04:24:02;;;;;;;;;14.00;14.00;;;;;28.18;34.13;100857.19;144156;615;132015;-70
2021/08/24 04:26:36;;;;;;;;;15.50;13.50;;;;;28.27;34.02;100868.06;144164;624;132012;-71
2021/08/24 04:29:10;;;;;;;;;10.75;10.75;;;;;28.32;33.85;100854.97;144148;581;132020;-70
2021/08/24 04:31:45;;;;;;;;;13.75;12.00;;;;;28.36;33.89;100873.41;144153;695;132012;-73
2021/08/24 04:34:19;;;;;;;;;13.25;11.50;;;;;28.32;34.04;100871.16;144145;571;132911;-73
2021/08/24 04:36:53;;;;;;;;;14.00;14.00;;;;;28.44;33.95;100874.47;144169;580;132010;-72
2021/08/24 04:39:27;;;;;;;;;11.25;11.25;;;;;28.49;33.83;100875.69;144145;577;132015;-73
2021/08/24 04:42:01;;;;;;;;;13.25;13.25;;;;;28.58;33.99;100873.06;144167;637;132012;-73
2021/08/24 04:44:35;;;;;;;;;12.75;12.75;;;;;28.73;33.79;100871.50;144148;596;132012;-72
2021/08/24 04:47:09;;;;;;;;;14.75;13.25;;;;;28.84;33.88;100870.41;144170;668;132011;-73
2021/08/24 04:49:43;;;;;;;;;12.00;11.50;;;;;28.94;33.74;100878.41;144164;604;132012;-73
2021/08/24 04:52:17;;;;;;;;;14.75;13.75;;;;;29.10;33.78;100874.97;144171;604;131033;-72
2021/08/24 04:54:51;;;;;;;;;16.75;15.00;;;;;29.28;33.52;100873.06;144154;588;132911;-72
2021/08/24 04:57:25;;;;;;;;;14.50;14.50;;;;;29.37;33.02;100882.91;144156;610;131035;-76
2021/08/24 04:59:59;;;;;;;;;14.00;13.25;;;;;29.36;33.56;100885.75;144148;692;132014;-76
2021/08/24 05:02:32;;;;;;;;;18.75;14.25;;;;;29.54;33.07;100877.56;144172;672;132012;-75
2021/08/24 05:05:07;;;;;;;;;15.75;13.00;;;;;29.76;33.13;100881.53;144154;578;132020;-76
2021/08/24 05:07:41;;;;;;;;;13.50;11.00;;;;;29.84;32.91;100883.38;144167;660;132012;-73
2021/08/24 05:10:15;;;;;;;;;14.75;13.25;;;;;29.95;32.56;100887.69;144151;606;132018;-72
2021/08/24 05:12:50;;;;;;;;;16.25;14.50;;;;;30.05;32.75;100882.97;144170;587;132010;-72
2021/08/24 05:15:24;;;;;;;;;16.50;15.00;;;;;30.29;32.25;100887.56;144161;661;132911;-72
2021/08/24 05:17:58;;;;;;;;;14.50;14.00;;;;;30.45;32.00;100884.03;144168;564;132010;-72
2021/08/24 05:20:32;;;;;;;;;17.75;14.25;;;;;30.63;31.41;100885.72;144150;569;132911;-72
2021/08/24 05:23:06;;;;;;;;;14.00;13.25;;;;;30.76;31.60;100888.78;144158;602;131020;-72
2021/08/24 05:25:42;;;;;;;;;15.00;13.25;;;;;30.94;31.28;100891.28;144151;628;132019;-73
2021/08/24 05:28:16;;;;;;;;;16.25;15.50;;;;;31.15;30.77;100892.59;144169;620;132012;-72
2021/08/24 05:30:50;;;;;;;;;14.50;13.00;;;;;31.19;30.58;100897.53;144148;573;131911;-72
2021/08/24 05:33:24;;;;;;;;;14.75;14.75;;;;;31.42;30.97;100904.06;144165;622;132012;-72
2021/08/24 05:35:58;;;;;;;;;15.50;15.50;;;;;31.64;30.72;100891.59;144149;640;132012;-72
2021/08/24 05:38:33;;;;;;;;;14.75;14.00;;;;;31.84;30.27;100897.44;144171;623;131021;-72
2021/08/24 05:41:09;;;;;;;;;16.50;15.75;;;;;32.02;30.17;100892.56;144163;572;132912;-73
2021/08/24 05:43:43;;;;;;;;;16.50;15.00;;;;;32.22;30.15;100889.41;144172;590;131020;-73
2021/08/24 05:46:18;;;;;;;;;16.75;16.50;;;;;32.37;29.79;100884.87;144149;581;131911;-70
2021/08/24 05:48:52;;;;;;;;;16.50;15.50;;;;;32.61;29.33;100876.69;144154;619;132010;-70
2021/08/24 05:51:28;;;;;;;;;18.00;15.75;;;;;32.72;29.39;100871.69;144156;565;131911;-71
2021/08/24 05:54:04;;;;;;;;;13.25;13.25;;;;;32.82;28.92;100874.13;144172;623;133012;-72
2021/08/24 05:56:38;;;;;;;;;16.50;16.25;;;;;32.96;28.86;100874.31;144150;599;131911;-73
2021/08/24 05:59:12;;;;;;;;;17.75;17.00;;;;;33.05;28.69;100878.63;144166;658;132012;-73
2021/08/24 06:01:46;;;;;;;;;16.25;15.75;;;;;33.17;28.67;100882.56;144156;590;132911;-74
2021/08/24 06:04:20;;;;;;;;;15.75;15.50;;;;;33.11;28.35;100872.47;144170;611;132012;-74
2021/08/24 06:06:54;;;;;;;;;13.00;13.00;;;;;33.06;28.88;100872.19;144161;580;131911;-72
2021/08/24 06:09:28;;;;;;;;;16.00;14.00;;;;;33.15;28.70;100870.19;144169;575;131021;-72
2021/08/24 06:12:02;;;;;;;;;14.75;14.75;;;;;33.33;27.92;100867.97;144152;593;132012;-72
2021/08/24 06:14:36;;;;;;;;;15.50;14.75;;;;;33.32;28.58;100870.87;144156;578;131020;-71
2021/08/24 06:17:09;;;;;;;;;17.00;13.50;;;;;33.49;28.04;100875.09;144148;702;132013;-72
2021/08/24 06:19:43;;;;;;;;;16.00;16.00;;;;;33.53;28.39;100870.97;144172;709;132010;-74
2021/08/24 06:22:17;;;;;;;;;16.50;15.50;;;;;33.71;28.05;100865.09;144150;613;132018;-74
2021/08/24 06:24:51;;;;;;;;;11.00;11.00;;;;;33.70;28.01;100866.12;144168;595;132013;-70
2021/08/24 06:27:25;;;;;;;;;15.50;14.50;;;;;34.01;27.61;100875.91;144147;629;132014;-72
2021/08/24 06:30:03;;;;;;;;;16.75;14.00;;;;;34.14;27.30;100874.34;144166;564;132011;-68
2021/08/24 06:32:40;;;;;;;;;14.00;14.00;;;;;34.30;27.15;100865.13;144157;570;132014;-70
2021/08/24 06:35:16;;;;;;;;;12.50;12.00;;;;;34.51;26.79;100873.25;144167;577;132010;-69
2021/08/24 06:37:50;;;;;;;;;14.50;14.50;;;;;34.46;26.44;100870.28;144154;607;132911;-70
2021/08/24 06:40:24;;;;;;;;;13.00;13.00;;;;;34.41;26.59;100867.31;144148;650;132012;-70
2021/08/24 06:43:00;;;;;;;;;12.25;12.00;;;;;34.75;26.16;100862.94;144145;802;132911;-71
2021/08/24 06:45:35;;;;;;;;;14.00;13.00;;;;;33.76;26.16;100869.09;144173;587;132012;-69
2021/08/24 06:48:09;;;;;;;;;11.50;11.25;;;;;34.49;25.89;100864.44;144149;605;132912;-71
2021/08/24 06:50:44;;;;;;;;;13.75;13.75;;;;;34.45;26.04;100871.31;144169;603;133010;-69
2021/08/24 06:53:18;;;;;;;;;13.50;11.75;;;;;34.40;26.44;100866.44;144147;617;132013;-69
2021/08/24 06:55:52;;;;;;;;;13.75;12.25;;;;;34.56;25.99;100875.38;144172;613;132012;-70
2021/08/24 06:58:28;;;;;;;;;12.00;12.00;;;;;34.56;26.51;100873.50;144166;651;131020;-69
2021/08/24 07:01:02;;;;;;;;;13.50;13.00;;;;;34.61;26.37;100870.16;144163;569;132012;-68
2021/08/24 07:03:37;;;;;;;;;15.25;14.75;;;;;33.91;27.21;100872.66;144150;599;132911;-69
2021/08/24 07:06:14;;;;;;;;;17.50;13.25;;;;;34.33;26.60;100864.72;144149;566;132010;-70
2021/08/24 07:08:50;;;;;;;;;16.00;14.75;;;;;33.46;28.05;100864.56;144147;565;132013;-71
2021/08/24 07:11:27;;;;;;;;;17.50;16.25;;;;;33.26;28.97;100874.34;144165;668;132012;-70
2021/08/24 07:14:04;;;;;;;;;16.00;16.00;;;;;32.30;30.78;100875.78;144152;571;132911;-71
2021/08/24 07:16:39;;;;;;;;;11.00;11.00;;;;;33.94;28.35;100872.25;144165;580;132021;-70
2021/08/24 07:19:13;;;;;;;;;11.50;11.50;;;;;33.44;29.24;100877.53;144143;703;132014;-70
2021/08/24 07:21:47;;;;;;;;;12.50;12.50;;;;;33.90;28.83;100880.00;144166;638;132010;-70
2021/08/24 07:24:20;;;;;;;;;13.50;13.50;;;;;34.20;27.90;100877.16;144161;619;131912;-70
2021/08/24 07:26:54;;;;;;;;;15.25;14.00;;;;;34.22;27.90;100876.94;144174;571;132010;-68
2021/08/24 07:29:28;;;;;;;;;12.25;12.25;;;;;33.96;27.96;100878.38;144152;702;132020;-69
2021/08/24 07:32:09;;;;;;;;;13.25;12.25;;;;;33.98;27.67;100883.63;144154;636;131021;-70
2021/08/24 07:34:43;;;;;;;;;14.25;14.25;;;;;33.47;28.14;100888.03;144144;579;132911;-66
2021/08/24 07:37:17;;;;;;;;;8.25;8.25;;;;;33.47;28.76;100896.19;144175;626;132013;-70
2021/08/24 07:39:51;;;;;;;;;11.75;11.75;;;;;33.74;28.61;100882.91;144149;619;132021;-69
2021/08/24 07:42:25;;;;;;;;;12.00;12.00;;;;;33.78;28.92;100897.00;144165;565;132010;-71
2021/08/24 07:44:59;;;;;;;;;11.00;11.00;;;;;34.00;28.47;100895.19;144147;564;132911;-71
2021/08/24 07:47:33;;;;;;;;;14.25;13.00;;;;;33.51;29.63;100891.22;144167;623;132010;-71
2021/08/24 07:50:08;;;;;;;;;14.00;13.00;;;;;33.44;29.86;100891.13;144161;591;132911;-71
2021/08/24 07:52:42;;;;;;;;;13.75;13.75;;;;;33.28;30.40;100897.63;144167;564;132012;-70
2021/08/24 07:55:19;;;;;;;;;10.25;10.25;;;;;32.94;30.75;100896.25;144144;724;132911;-70
2021/08/24 07:57:54;;;;;;;;;13.25;13.25;;;;;33.67;29.77;100890.16;144158;584;131020;-68
2021/08/24 08:00:28;;;;;;;;;17.75;15.75;;;;;34.42;28.39;100890.78;144146;608;132018;-68
2021/08/24 08:03:02;;;;;;;;;14.00;14.00;;;;;33.47;30.39;100896.19;144172;632;132010;-68
2021/08/24 08:05:36;;;;;;;;;12.25;12.25;;;;;34.57;28.59;100894.25;144146;576;132911;-68
2021/08/24 08:08:10;;;;;;;;;12.00;11.00;;;;;34.76;28.63;100889.16;144167;797;132010;-68
2021/08/24 08:10:44;;;;;;;;;11.50;11.50;;;;;33.83;29.65;100886.38;144147;565;132014;-68
2021/08/24 08:13:18;;;;;;;;;13.25;12.25;;;;;34.36;29.34;100886.94;144168;587;132013;-68
2021/08/24 08:15:52;;;;;;;;;10.75;10.75;;;;;34.10;30.43;100886.69;144158;597;132014;-68
2021/08/24 08:18:27;;;;;;;;;15.75;15.75;;;;;33.86;30.26;100881.41;144171;862;132008;-68
2021/08/24 08:21:01;;;;;;;;;11.00;11.00;;;;;34.55;29.42;100879.97;144148;783;131911;-68
2021/08/24 08:23:35;;;;;;;;;13.75;12.00;;;;;33.92;31.23;100876.25;144150;649;132012;-68
2021/08/24 08:26:09;;;;;;;;;14.75;11.50;;;;;34.29;30.56;100875.13;144150;571;132911;-67
2021/08/24 08:28:43;;;;;;;;;11.25;11.00;;;;;34.18;30.41;100868.31;144174;711;132010;-67
2021/08/24 08:31:17;;;;;;;;;13.00;13.00;;;;;34.18;30.46;100878.38;144150;566;132911;-68
2021/08/24 08:33:52;;;;;;;;;12.25;12.25;;;;;34.43;30.14;100875.28;144168;600;132012;-68
2021/08/24 08:36:26;;;;;;;;;10.50;10.50;;;;;33.99;31.01;100885.31;144151;638;132021;-67
2021/08/24 08:39:00;;;;;;;;;11.25;11.25;;;;;34.21;30.97;100870.63;144173;644;131024;-68
2021/08/24 08:42:19;;;;;;;;;10.25;10.25;;;;;34.00;31.16;100871.50;144165;571;132012;-69
2021/08/24 08:45:26;;;;;;;;;13.75;12.75;;;;;34.34;30.28;100869.97;144177;594;131021;-69
2021/08/24 08:48:42;;;;;;;;;8.25;8.25;;;;;34.70;29.81;100860.81;144152;617;132035;-68
2021/08/24 08:52:00;;;;;;;;;11.00;11.00;;;;;34.52;30.89;100866.75;144158;610;132010;-68
2021/08/24 08:55:04;;;;;;;;;12.50;12.50;;;;;33.60;31.98;100865.59;144153;577;132012;-67
2021/08/24 08:58:28;;;;;;;;;12.25;11.25;;;;;33.66;31.62;100861.25;144169;582;132011;-69
2021/08/24 09:01:28;;;;;;;;;12.00;11.25;;;;;33.82;31.56;100850.16;144152;596;132020;-68
2021/08/24 09:04:27;;;;;;;;;12.00;12.00;;;;;33.13;32.13;100864.94;144168;671;132012;-68
2021/08/24 09:07:04;;;;;;;;;14.00;14.00;;;;;33.74;32.86;100861.13;144148;653;132913;-68
2021/08/24 09:09:39;;;;;;;;;11.25;10.25;;;;;34.06;32.44;100862.56;144170;579;132010;-69
2021/08/24 09:12:14;;;;;;;;;11.75;11.25;;;;;33.99;32.65;100856.19;144163;569;132020;-68
2021/08/24 09:14:57;;;;;;;;;11.75;11.75;;;;;33.00;34.19;100857.47;144174;577;132010;-69
2021/08/24 09:17:41;;;;;;;;;13.00;12.50;;;;;33.95;32.94;100854.88;144146;764;132911;-69
2021/08/24 09:20:25;;;;;;;;;16.25;13.25;;;;;33.58;31.75;100856.75;144151;684;132011;-69
2021/08/24 09:23:01;;;;;;;;;11.75;11.75;;;;;32.76;33.31;100846.84;144149;574;132034;-70
2021/08/24 09:26:13;;;;;;;;;13.75;13.75;;;;;33.26;33.01;100849.88;144171;591;131020;-68
2021/08/24 09:28:57;;;;;;;;;15.50;15.25;;;;;33.95;32.81;100851.34;144150;629;132014;-69
2021/08/24 09:31:30;;;;;;;;;12.00;12.00;;;;;33.52;32.90;100847.50;144173;666;131020;-69
2021/08/24 09:34:05;;;;;;;;;12.00;12.00;;;;;33.19;33.65;100839.72;144147;680;132020;-67
2021/08/24 09:36:39;;;;;;;;;14.00;14.00;;;;;32.86;34.45;100847.41;144168;633;132013;-69
2021/08/24 09:39:13;;;;;;;;;13.75;13.75;;;;;33.13;33.30;100848.62;144156;564;132020;-67
2021/08/24 09:41:49;;;;;;;;;13.50;13.50;;;;;32.60;34.26;100853.25;144173;571;132010;-67
2021/08/24 09:44:31;;;;;;;;;12.50;11.50;;;;;34.10;30.63;100854.81;144150;610;132012;-68
2021/08/24 09:47:21;;;;;;;;;11.50;11.50;;;;;33.22;31.91;100857.56;144149;565;132010;-68
2021/08/24 09:50:02;;;;;;;;;11.00;11.00;;;;;33.99;31.08;100850.75;144143;572;132911;-69
2021/08/24 09:52:40;;;;;;;;;12.75;12.75;;;;;34.20;31.00;100846.31;144172;570;131020;-69
2021/08/24 09:55:24;;;;;;;;;10.75;10.75;;;;;33.33;32.55;100845.38;144146;742;132014;-69
2021/08/24 09:58:02;;;;;;;;;12.50;11.00;;;;;34.16;30.91;100837.72;144173;576;131021;-69
2021/08/24 10:00:56;;;;;;;;;14.00;13.00;;;;;33.44;31.52;100839.44;144148;565;132912;-69
2021/08/24 10:03:42;;;;;;;;;12.75;12.75;;;;;33.57;31.13;100839.59;144173;611;131020;-68
2021/08/24 10:06:32;;;;;;;;;14.00;13.00;;;;;34.25;30.60;100841.13;144161;629;132020;-69
2021/08/24 10:09:43;;;;;;;;;13.50;12.25;;;;;32.90;31.64;100844.16;144166;579;132010;-66
2021/08/24 10:12:35;;;;;;;;;12.25;12.25;;;;;32.94;32.19;100836.44;144157;598;132913;-68
2021/08/24 10:15:31;;;;;;;;;14.50;14.50;;;;;32.97;31.53;100832.50;144151;783;132020;-71
2021/08/24 10:18:36;;;;;;;;;13.00;13.00;;;;;32.44;32.50;100827.94;144146;580;132911;-68
2021/08/24 10:21:17;;;;;;;;;15.00;12.75;;;;;32.34;33.67;100819.19;144168;564;132010;-69
2021/08/24 10:24:03;;;;;;;;;14.75;14.75;;;;;32.44;33.48;100827.09;144143;577;132014;-68
2021/08/24 10:26:39;;;;;;;;;11.75;11.75;;;;;32.17;32.88;100815.78;144171;605;132012;-69
2021/08/24 10:29:18;;;;;;;;;13.75;13.50;;;;;31.95;33.72;100822.91;144154;569;132012;-69
2021/08/24 10:32:02;;;;;;;;;13.00;13.00;;;;;32.45;32.42;100824.22;144171;614;132012;-70
2021/08/24 10:34:51;;;;;;;;;13.00;12.25;;;;;32.03;33.64;100825.56;144160;569;132012;-69
2021/08/24 10:37:52;;;;;;;;;14.00;14.00;;;;;33.27;31.14;100808.03;144167;570;132012;-68
2021/08/24 10:40:32;;;;;;;;;13.00;12.75;;;;;33.42;31.17;100818.91;144144;606;132014;-70
2021/08/24 10:43:35;;;;;;;;;10.75;9.25;;;;;33.20;31.64;100805.19;144150;615;132031;-68
2021/08/24 10:46:19;;;;;;;;;14.25;13.00;;;;;34.28;30.01;100813.50;144150;577;131913;-69
2021/08/24 10:48:53;;;;;;;;;6.50;6.50;;;;;33.81;30.71;100815.81;144176;725;132013;-67
2021/08/24 10:51:44;;;;;;;;;13.75;13.50;;;;;33.44;32.10;100811.41;144151;597;132012;-67
2021/08/24 10:54:30;;;;;;;;;14.75;14.75;;;;;32.42;32.64;100818.28;144171;682;132012;-68
2021/08/24 10:58:04;;;;;;;;;11.00;11.00;;;;;32.90;32.75;100795.22;144150;606;132020;-68
2021/08/24 11:01:01;;;;;;;;;12.75;12.75;;;;;33.80;31.32;100811.38;144170;686;132010;-69
2021/08/24 11:04:11;;;;;;;;;10.00;10.00;;;;;32.73;32.11;100810.03;144164;602;132012;-68
2021/08/24 11:07:24;;;;;;;;;17.00;14.50;;;;;32.95;32.23;100815.56;144168;645;132020;-68
2021/08/24 11:10:05;;;;;;;;;12.50;11.00;;;;;32.21;33.53;100800.81;144149;624;132014;-68
2021/08/24 11:13:12;;;;;;;;;14.75;14.75;;;;;32.50;33.77;100805.44;144154;625;132012;-67
2021/08/24 11:16:50;;;;;;;;;15.00;15.00;;;;;32.61;32.33;100806.03;144151;625;131020;-68
2021/08/24 11:20:27;;;;;;;;;12.75;12.75;;;;;32.87;32.90;100798.28;144175;612;132012;-68
2021/08/24 11:23:27;;;;;;;;;12.75;11.75;;;;;32.50;32.95;100800.03;144149;668;132018;-69
2021/08/24 11:26:18;;;;;;;;;15.00;13.00;;;;;33.05;32.02;100792.50;144170;581;132010;-68
2021/08/24 11:29:39;;;;;;;;;11.25;11.00;;;;;32.42;32.67;100797.38;144144;573;132012;-68
2021/08/24 11:32:45;;;;;;;;;11.75;10.75;;;;;32.36;33.99;100787.28;144171;575;131020;-68
2021/08/24 11:35:32;;;;;;;;;10.50;10.50;;;;;32.97;33.39;100799.87;144166;603;132012;-68
2021/08/24 11:38:16;;;;;;;;;12.25;12.25;;;;;32.52;34.14;100800.69;144172;602;131022;-67
2021/08/24 11:41:18;;;;;;;;;13.00;13.00;;;;;32.59;34.12;100792.66;144156;634;132012;-69
2021/08/24 11:44:06;;;;;;;;;11.75;11.75;;;;;32.23;35.08;100786.03;144181;576;130021;-68
2021/08/24 11:47:14;;;;;;;;;11.25;11.25;;;;;32.60;33.19;100788.03;144176;592;131012;-67
2021/08/24 11:50:11;;;;;;;;;11.00;11.00;;;;;32.69;32.19;100785.03;144198;571;131010;-68
2021/08/24 11:52:57;;;;;;;;;9.25;8.00;;;;;32.58;32.17;100779.25;144182;609;131911;-68
2021/08/24 11:55:36;;;;;;;;;11.75;11.75;;;;;32.00;32.79;100777.03;144198;669;131010;-69
2021/08/24 11:58:35;;;;;;;;;12.00;11.25;;;;;32.13;32.62;100771.81;144177;607;131021;-69
2021/08/24 12:01:10;;;;;;;;;9.00;9.00;;;;;31.91;32.95;100776.25;144202;591;130020;-69
2021/08/24 12:03:55;;;;;;;;;8.50;8.50;;;;;31.93;33.50;100767.94;144192;579;130911;-69
2021/08/24 12:07:03;;;;;;;;;11.00;10.50;;;;;32.28;32.56;100771.06;144194;642;131010;-68
2021/08/24 12:09:54;;;;;;;;;9.75;9.75;;;;;32.58;32.12;100762.94;144176;569;130913;-68
2021/08/24 12:12:55;;;;;;;;;10.00;10.00;;;;;32.34;31.64;100757.59;144180;583;131011;-68